Terminal Aerodrome Forecast
Issued by NWS

Home | Current Version | Previous Version | Text Only | Print | Product List | Glossary On
Versions: 1 2 3 4 5 6 7 8 9 10 11 12 13 14 15 16 17
000
FTUS46 KEKA 262328
TAFCEC
TAF
KCEC 262328Z 2700/2724 29006KT P6SM OVC025
     FM270400 VRB03KT P6SM OVC015
     FM270900 07002KT 4SM BR OVC007
     FM272000 28008KT P6SM BKN015=

USA.gov is the U.S. government's official web portal to all federal, state and local government web resources and services.